PABE/BET METAR and TAF weather

Enter ICAO airport designator
Station Type Date Time Source
PABE METAR 2021/01/20 22:08 UTC NOAA

PABE 202208Z 03004KT 10SM R19R/3000VP6000FT CLR M07/M08 A2970 RMK AO2 T10721083


Station Type Date Time Source
PABE Decoded METAR 2021/01/20 22:08 UTC NOAA

BETHEL AIRPORT, AK, United States (PABE) 60-47N 161-50W 46M
Jan 20, 2021 - 05:08 PM EST / 2021.01.20 2208 UTC
Wind: from the NNE (030 degrees) at 5 MPH (4 KT):0
Visibility: 10 mile(s):0
Sky conditions: clear
Temperature: 19.0 F (-7.2 C)
Windchill: 12 F (-11 C):1
Dew Point: 17.1 F (-8.3 C)
Relative Humidity: 91%
Pressure (altimeter): 29.7 in. Hg (1005 hPa)
ob: PABE 202208Z 03004KT 10SM R19R/3000VP6000FT CLR M07/M08 A2970 RMK AO2 T10721083
cycle: 22

Station Type Date Time Source
PABE TAF 2021/01/20 18:58 UTC NOAA

TAF
AMD PABE 201758Z 2018/2118 06007KT P6SM FEW010 OVC020
TEMPO 2018/2020 4SM BR BKN010
FM210300 13018G28KT P6SM VCSH BKN020 OVC035
FM211200 16012G20KT P6SM SCT020 OVC035

Example: see airport list